KLOT/LOT METAR and TAF weather

Enter ICAO airport designator
Station Type Date Time Source
KLOT METAR 2022/09/26 09:35 UTC NOAA

KLOT 260935Z AUTO 26008KT 10SM CLR 10/07 A2984 RMK AO2


Station Type Date Time Source
KLOT Decoded METAR 2022/09/26 09:35 UTC NOAA

Chicago/Romeoville, Lewis University Airport, IL, United States (KLOT) 41-36-30N 088-05-39W
Sep 26, 2022 - 05:35 AM EDT / 2022.09.26 0935 UTC
Wind: from the W (260 degrees) at 9 MPH (8 KT):0
Visibility: 10 mile(s):0
Sky conditions: clear
Temperature: 50 F (10 C)
Dew Point: 44 F (7 C)
Relative Humidity: 81%
Pressure (altimeter): 29.84 in. Hg (1010 hPa)
ob: KLOT 260935Z AUTO 26008KT 10SM CLR 10/07 A2984 RMK AO2
cycle: 9

Station Type Date Time Source
KLOT TAF UTC NOAA

Error!

Example: see airport list